sensor_id;sensor_type;location;lat;lon;timestamp;P1;durP1;ratioP1;P2;durP2;ratioP2
84996;SDS011;75312;47.528;19.016;2024-01-30T00:00:29;38.77;;;35.50;;
84996;SDS011;75312;47.528;19.016;2024-01-30T00:01:04;41.37;;;37.30;;
84996;SDS011;75312;47.528;19.016;2024-01-30T00:01:37;40.90;;;37.03;;
84996;SDS011;75312;47.528;19.016;2024-01-30T00:02:08;39.97;;;36.57;;
84996;SDS011;75312;47.528;19.016;2024-01-30T00:02:38;38.93;;;35.57;;
84996;SDS011;75312;47.528;19.016;2024-01-30T00:03:09;37.43;;;34.53;;
84996;SDS011;75312;47.528;19.016;2024-01-30T00:03:40;37.10;;;34.73;;
84996;SDS011;75312;47.528;19.016;2024-01-30T00:04:10;37.37;;;35.00;;
84996;SDS011;75312;47.528;19.016;2024-01-30T00:04:41;37.33;;;34.77;;
84996;SDS011;75312;47.528;19.016;2024-01-30T00:05:11;37.33;;;34.47;;
84996;SDS011;75312;47.528;19.016;2024-01-30T00:05:45;38.13;;;35.17;;
84996;SDS011;75312;47.528;19.016;2024-01-30T00:06:18;36.90;;;34.40;;
84996;SDS011;75312;47.528;19.016;2024-01-30T00:06:53;36.50;;;34.23;;
84996;SDS011;75312;47.528;19.016;2024-01-30T00:07:24;38.33;;;35.47;;
84996;SDS011;75312;47.528;19.016;2024-01-30T00:07:57;37.07;;;34.03;;
84996;SDS011;75312;47.528;19.016;2024-01-30T00:08:27;36.90;;;34.00;;
84996;SDS011;75312;47.528;19.016;2024-01-30T00:08:58;37.00;;;34.20;;
84996;SDS011;75312;47.528;19.016;2024-01-30T00:09:28;37.00;;;34.47;;
84996;SDS011;75312;47.528;19.016;2024-01-30T00:09:59;37.90;;;35.20;;
84996;SDS011;75312;47.528;19.016;2024-01-30T00:10:29;38.30;;;34.83;;
84996;SDS011;75312;47.528;19.016;2024-01-30T00:11:05;38.93;;;35.37;;
84996;SDS011;75312;47.528;19.016;2024-01-30T00:11:40;39.23;;;36.10;;
84996;SDS011;75312;47.528;19.016;2024-01-30T00:12:11;39.17;;;36.27;;
84996;SDS011;75312;47.528;19.016;2024-01-30T00:12:43;37.83;;;35.30;;
84996;SDS011;75312;47.528;19.016;2024-01-30T00:13:14;35.50;;;33.33;;
84996;SDS011;75312;47.528;19.016;2024-01-30T00:13:47;37.87;;;34.87;;
84996;SDS011;75312;47.528;19.016;2024-01-30T00:14:18;38.33;;;34.93;;
84996;SDS011;75312;47.528;19.016;2024-01-30T00:14:48;38.93;;;36.00;;
84996;SDS011;75312;47.528;19.016;2024-01-30T00:15:19;37.00;;;34.50;;
84996;SDS011;75312;47.528;19.016;2024-01-30T00:15:50;36.03;;;33.47;;
84996;SDS011;75312;47.528;19.016;2024-01-30T00:16:20;36.77;;;34.30;;
84996;SDS011;75312;47.528;19.016;2024-01-30T00:16:52;37.30;;;34.70;;
84996;SDS011;75312;47.528;19.016;2024-01-30T00:17:23;37.80;;;34.57;;
84996;SDS011;75312;47.528;19.016;2024-01-30T00:17:55;36.77;;;33.47;;
84996;SDS011;75312;47.528;19.016;2024-01-30T00:18:26;36.53;;;33.63;;
84996;SDS011;75312;47.528;19.016;2024-01-30T00:18:59;37.13;;;34.13;;
84996;SDS011;75312;47.528;19.016;2024-01-30T00:19:32;37.07;;;34.17;;
84996;SDS011;75312;47.528;19.016;2024-01-30T00:24:07;37.67;;;34.70;;
84996;SDS011;75312;47.528;19.016;2024-01-30T00:24:38;36.93;;;33.97;;
84996;SDS011;75312;47.528;19.016;2024-01-30T00:25:11;37.70;;;34.93;;
84996;SDS011;75312;47.528;19.016;2024-01-30T00:25:44;37.00;;;34.27;;
84996;SDS011;75312;47.528;19.016;2024-01-30T00:26:14;37.47;;;34.77;;
84996;SDS011;75312;47.528;19.016;2024-01-30T00:26:47;36.43;;;33.83;;
84996;SDS011;75312;47.528;19.016;2024-01-30T00:30:20;37.37;;;34.43;;
84996;SDS011;75312;47.528;19.016;2024-01-30T00:30:51;34.73;;;32.13;;
84996;SDS011;75312;47.528;19.016;2024-01-30T00:31:26;35.27;;;32.77;;
84996;SDS011;75312;47.528;19.016;2024-01-30T00:31:57;36.20;;;33.47;;
84996;SDS011;75312;47.528;19.016;2024-01-30T00:32:30;36.50;;;33.67;;
84996;SDS011;75312;47.528;19.016;2024-01-30T00:33:00;37.47;;;34.43;;
84996;SDS011;75312;47.528;19.016;2024-01-30T00:33:31;37.73;;;34.27;;
84996;SDS011;75312;47.528;19.016;2024-01-30T00:34:01;36.40;;;33.37;;
84996;SDS011;75312;47.528;19.016;2024-01-30T00:34:32;36.90;;;34.10;;
84996;SDS011;75312;47.528;19.016;2024-01-30T00:35:05;37.43;;;34.40;;
84996;SDS011;75312;47.528;19.016;2024-01-30T00:35:36;39.77;;;36.33;;
84996;SDS011;75312;47.528;19.016;2024-01-30T00:36:08;38.17;;;35.13;;
84996;SDS011;75312;47.528;19.016;2024-01-30T00:36:41;36.20;;;33.80;;
84996;SDS011;75312;47.528;19.016;2024-01-30T00:37:12;36.33;;;33.77;;
84996;SDS011;75312;47.528;19.016;2024-01-30T00:37:45;36.40;;;33.93;;
84996;SDS011;75312;47.528;19.016;2024-01-30T00:38:15;36.20;;;33.67;;
84996;SDS011;75312;47.528;19.016;2024-01-30T00:38:46;35.90;;;33.30;;
84996;SDS011;75312;47.528;19.016;2024-01-30T00:39:17;36.87;;;33.67;;
84996;SDS011;75312;47.528;19.016;2024-01-30T00:39:52;37.67;;;34.33;;
84996;SDS011;75312;47.528;19.016;2024-01-30T00:40:22;37.70;;;34.73;;
84996;SDS011;75312;47.528;19.016;2024-01-30T00:40:53;36.13;;;33.50;;
84996;SDS011;75312;47.528;19.016;2024-01-30T00:41:23;36.80;;;34.20;;
84996;SDS011;75312;47.528;19.016;2024-01-30T00:41:54;37.53;;;34.80;;
84996;SDS011;75312;47.528;19.016;2024-01-30T00:42:25;37.13;;;34.20;;
84996;SDS011;75312;47.528;19.016;2024-01-30T00:42:55;36.47;;;33.67;;
84996;SDS011;75312;47.528;19.016;2024-01-30T00:43:26;36.40;;;33.80;;
84996;SDS011;75312;47.528;19.016;2024-01-30T00:43:56;37.17;;;34.27;;
84996;SDS011;75312;47.528;19.016;2024-01-30T00:44:27;36.47;;;33.80;;
84996;SDS011;75312;47.528;19.016;2024-01-30T00:45:00;36.83;;;34.13;;
84996;SDS011;75312;47.528;19.016;2024-01-30T00:45:30;37.33;;;34.70;;
84996;SDS011;75312;47.528;19.016;2024-01-30T00:46:01;36.17;;;33.43;;
84996;SDS011;75312;47.528;19.016;2024-01-30T00:46:34;35.27;;;32.90;;
84996;SDS011;75312;47.528;19.016;2024-01-30T00:47:05;36.83;;;34.53;;
84996;SDS011;75312;47.528;19.016;2024-01-30T00:47:36;36.70;;;34.33;;
84996;SDS011;75312;47.528;19.016;2024-01-30T00:52:11;37.20;;;34.20;;
84996;SDS011;75312;47.528;19.016;2024-01-30T00:52:42;37.93;;;34.60;;
84996;SDS011;75312;47.528;19.016;2024-01-30T00:53:15;38.57;;;35.40;;
84996;SDS011;75312;47.528;19.016;2024-01-30T00:53:45;38.73;;;35.50;;
84996;SDS011;75312;47.528;19.016;2024-01-30T00:54:16;37.57;;;34.23;;
84996;SDS011;75312;47.528;19.016;2024-01-30T00:54:47;36.30;;;33.27;;
84996;SDS011;75312;47.528;19.016;2024-01-30T00:55:20;38.20;;;35.03;;
84996;SDS011;75312;47.528;19.016;2024-01-30T00:55:56;36.77;;;33.63;;
84996;SDS011;75312;47.528;19.016;2024-01-30T00:56:29;36.77;;;33.97;;
84996;SDS011;75312;47.528;19.016;2024-01-30T00:57:02;37.47;;;34.80;;
84996;SDS011;75312;47.528;19.016;2024-01-30T00:57:32;37.50;;;34.70;;
84996;SDS011;75312;47.528;19.016;2024-01-30T00:58:06;36.53;;;34.10;;
84996;SDS011;75312;47.528;19.016;2024-01-30T00:58:37;36.53;;;33.93;;
84996;SDS011;75312;47.528;19.016;2024-01-30T01:03:11;36.90;;;33.77;;
84996;SDS011;75312;47.528;19.016;2024-01-30T01:03:42;36.57;;;33.73;;
84996;SDS011;75312;47.528;19.016;2024-01-30T01:04:15;36.97;;;34.07;;
84996;SDS011;75312;47.528;19.016;2024-01-30T01:04:51;37.43;;;34.70;;
84996;SDS011;75312;47.528;19.016;2024-01-30T01:05:22;37.40;;;34.53;;
84996;SDS011;75312;47.528;19.016;2024-01-30T01:05:52;38.03;;;35.10;;
84996;SDS011;75312;47.528;19.016;2024-01-30T01:06:23;37.43;;;34.83;;
84996;SDS011;75312;47.528;19.016;2024-01-30T01:06:53;36.43;;;33.90;;
84996;SDS011;75312;47.528;19.016;2024-01-30T01:07:26;35.07;;;32.73;;
84996;SDS011;75312;47.528;19.016;2024-01-30T01:07:59;34.83;;;32.50;;
84996;SDS011;75312;47.528;19.016;2024-01-30T01:08:34;35.43;;;32.93;;
84996;SDS011;75312;47.528;19.016;2024-01-30T01:09:07;35.17;;;32.73;;
84996;SDS011;75312;47.528;19.016;2024-01-30T01:13:40;40.20;;;36.10;;
84996;SDS011;75312;47.528;19.016;2024-01-30T01:14:11;37.00;;;34.07;;
84996;SDS011;75312;47.528;19.016;2024-01-30T01:14:41;34.43;;;31.97;;
84996;SDS011;75312;47.528;19.016;2024-01-30T01:15:18;35.33;;;32.47;;
84996;SDS011;75312;47.528;19.016;2024-01-30T01:15:48;35.23;;;32.17;;
84996;SDS011;75312;47.528;19.016;2024-01-30T01:16:19;35.87;;;32.80;;
84996;SDS011;75312;47.528;19.016;2024-01-30T01:16:49;35.63;;;32.73;;
84996;SDS011;75312;47.528;19.016;2024-01-30T01:17:22;33.87;;;31.20;;
84996;SDS011;75312;47.528;19.016;2024-01-30T01:17:53;33.67;;;30.80;;
84996;SDS011;75312;47.528;19.016;2024-01-30T01:18:23;35.07;;;31.93;;
84996;SDS011;75312;47.528;19.016;2024-01-30T01:18:54;34.60;;;31.40;;
84996;SDS011;75312;47.528;19.016;2024-01-30T01:19:28;34.70;;;31.83;;
84996;SDS011;75312;47.528;19.016;2024-01-30T01:19:59;35.80;;;32.40;;
84996;SDS011;75312;47.528;19.016;2024-01-30T01:20:29;35.00;;;31.57;;
84996;SDS011;75312;47.528;19.016;2024-01-30T01:21:03;33.43;;;30.37;;
84996;SDS011;75312;47.528;19.016;2024-01-30T01:21:36;32.53;;;29.50;;
84996;SDS011;75312;47.528;19.016;2024-01-30T01:22:06;34.73;;;31.40;;
84996;SDS011;75312;47.528;19.016;2024-01-30T01:22:42;34.57;;;31.43;;
84996;SDS011;75312;47.528;19.016;2024-01-30T01:23:13;33.50;;;30.00;;
84996;SDS011;75312;47.528;19.016;2024-01-30T01:23:43;32.97;;;29.93;;
84996;SDS011;75312;47.528;19.016;2024-01-30T01:24:14;34.07;;;31.17;;
84996;SDS011;75312;47.528;19.016;2024-01-30T01:28:50;32.47;;;29.57;;
84996;SDS011;75312;47.528;19.016;2024-01-30T01:29:23;33.67;;;30.67;;
84996;SDS011;75312;47.528;19.016;2024-01-30T01:29:58;34.67;;;31.27;;
84996;SDS011;75312;47.528;19.016;2024-01-30T01:30:29;33.20;;;30.10;;
84996;SDS011;75312;47.528;19.016;2024-01-30T01:31:02;33.17;;;30.30;;
84996;SDS011;75312;47.528;19.016;2024-01-30T01:31:40;32.10;;;29.77;;
84996;SDS011;75312;47.528;19.016;2024-01-30T01:36:09;33.10;;;30.40;;
84996;SDS011;75312;47.528;19.016;2024-01-30T01:36:43;33.20;;;30.50;;
84996;SDS011;75312;47.528;19.016;2024-01-30T01:37:16;32.10;;;29.73;;
84996;SDS011;75312;47.528;19.016;2024-01-30T01:37:46;33.60;;;30.87;;
84996;SDS011;75312;47.528;19.016;2024-01-30T01:38:17;32.33;;;29.87;;
84996;SDS011;75312;47.528;19.016;2024-01-30T01:38:47;33.40;;;31.20;;
84996;SDS011;75312;47.528;19.016;2024-01-30T01:39:18;32.33;;;30.03;;
84996;SDS011;75312;47.528;19.016;2024-01-30T01:39:49;32.87;;;30.50;;
84996;SDS011;75312;47.528;19.016;2024-01-30T01:40:23;33.77;;;31.20;;
84996;SDS011;75312;47.528;19.016;2024-01-30T01:40:55;33.10;;;30.90;;
84996;SDS011;75312;47.528;19.016;2024-01-30T01:41:30;32.73;;;30.53;;
84996;SDS011;75312;47.528;19.016;2024-01-30T01:42:02;34.20;;;31.40;;
84996;SDS011;75312;47.528;19.016;2024-01-30T01:42:33;34.70;;;31.87;;
84996;SDS011;75312;47.528;19.016;2024-01-30T01:43:03;33.80;;;31.10;;
84996;SDS011;75312;47.528;19.016;2024-01-30T01:43:35;32.80;;;30.53;;
84996;SDS011;75312;47.528;19.016;2024-01-30T01:44:09;32.60;;;30.33;;
84996;SDS011;75312;47.528;19.016;2024-01-30T01:44:40;34.13;;;31.20;;
84996;SDS011;75312;47.528;19.016;2024-01-30T01:45:13;34.53;;;31.63;;
84996;SDS011;75312;47.528;19.016;2024-01-30T01:45:46;34.00;;;31.50;;
84996;SDS011;75312;47.528;19.016;2024-01-30T01:50:21;35.43;;;32.10;;
84996;SDS011;75312;47.528;19.016;2024-01-30T01:50:56;35.23;;;32.13;;
84996;SDS011;75312;47.528;19.016;2024-01-30T01:51:28;34.67;;;32.00;;
84996;SDS011;75312;47.528;19.016;2024-01-30T01:52:01;34.07;;;31.40;;
84996;SDS011;75312;47.528;19.016;2024-01-30T01:52:31;35.17;;;32.17;;
84996;SDS011;75312;47.528;19.016;2024-01-30T01:53:02;35.20;;;32.33;;
84996;SDS011;75312;47.528;19.016;2024-01-30T01:53:35;34.07;;;31.30;;
84996;SDS011;75312;47.528;19.016;2024-01-30T01:54:05;34.97;;;32.13;;
84996;SDS011;75312;47.528;19.016;2024-01-30T01:54:37;33.23;;;30.40;;
84996;SDS011;75312;47.528;19.016;2024-01-30T01:55:08;34.80;;;31.90;;
84996;SDS011;75312;47.528;19.016;2024-01-30T01:55:39;34.30;;;31.57;;
84996;SDS011;75312;47.528;19.016;2024-01-30T01:56:10;35.83;;;32.63;;
84996;SDS011;75312;47.528;19.016;2024-01-30T01:56:44;35.93;;;32.80;;
84996;SDS011;75312;47.528;19.016;2024-01-30T01:57:19;34.47;;;31.77;;
84996;SDS011;75312;47.528;19.016;2024-01-30T01:57:53;34.67;;;32.17;;
84996;SDS011;75312;47.528;19.016;2024-01-30T01:58:24;35.07;;;32.47;;
84996;SDS011;75312;47.528;19.016;2024-01-30T01:59:04;34.87;;;31.77;;
84996;SDS011;75312;47.528;19.016;2024-01-30T01:59:37;35.90;;;32.60;;
84996;SDS011;75312;47.528;19.016;2024-01-30T02:00:08;34.83;;;31.63;;
84996;SDS011;75312;47.528;19.016;2024-01-30T02:00:42;35.40;;;32.00;;
84996;SDS011;75312;47.528;19.016;2024-01-30T02:01:14;35.93;;;32.67;;
84996;SDS011;75312;47.528;19.016;2024-01-30T02:01:49;35.30;;;32.27;;
84996;SDS011;75312;47.528;19.016;2024-01-30T02:02:20;34.63;;;31.67;;
84996;SDS011;75312;47.528;19.016;2024-01-30T02:03:02;35.33;;;32.50;;
84996;SDS011;75312;47.528;19.016;2024-01-30T02:03:34;34.73;;;31.83;;
84996;SDS011;75312;47.528;19.016;2024-01-30T02:04:05;35.33;;;32.17;;
84996;SDS011;75312;47.528;19.016;2024-01-30T02:04:38;35.97;;;32.60;;
84996;SDS011;75312;47.528;19.016;2024-01-30T02:05:11;37.47;;;34.03;;
84996;SDS011;75312;47.528;19.016;2024-01-30T02:05:48;36.10;;;33.07;;
84996;SDS011;75312;47.528;19.016;2024-01-30T02:06:21;35.20;;;33.03;;
84996;SDS011;75312;47.528;19.016;2024-01-30T02:06:55;36.20;;;33.90;;
84996;SDS011;75312;47.528;19.016;2024-01-30T02:07:26;36.97;;;34.13;;
84996;SDS011;75312;47.528;19.016;2024-01-30T02:08:01;35.93;;;33.03;;
84996;SDS011;75312;47.528;19.016;2024-01-30T02:08:34;37.10;;;33.97;;
84996;SDS011;75312;47.528;19.016;2024-01-30T02:09:09;37.50;;;34.17;;
84996;SDS011;75312;47.528;19.016;2024-01-30T02:09:43;38.20;;;34.63;;
84996;SDS011;75312;47.528;19.016;2024-01-30T02:10:16;38.47;;;35.10;;
84996;SDS011;75312;47.528;19.016;2024-01-30T02:10:47;37.30;;;34.47;;
84996;SDS011;75312;47.528;19.016;2024-01-30T02:11:18;37.13;;;34.63;;
84996;SDS011;75312;47.528;19.016;2024-01-30T02:11:50;38.67;;;36.17;;
84996;SDS011;75312;47.528;19.016;2024-01-30T02:12:23;38.37;;;35.40;;
84996;SDS011;75312;47.528;19.016;2024-01-30T02:12:54;38.53;;;35.43;;
84996;SDS011;75312;47.528;19.016;2024-01-30T02:13:27;37.97;;;34.70;;
84996;SDS011;75312;47.528;19.016;2024-01-30T02:14:02;40.57;;;36.80;;
84996;SDS011;75312;47.528;19.016;2024-01-30T02:14:44;41.17;;;37.97;;
84996;SDS011;75312;47.528;19.016;2024-01-30T02:15:18;39.40;;;36.80;;
84996;SDS011;75312;47.528;19.016;2024-01-30T02:15:51;37.00;;;35.43;;
84996;SDS011;75312;47.528;19.016;2024-01-30T02:16:23;39.57;;;37.30;;
84996;SDS011;75312;47.528;19.016;2024-01-30T02:16:56;41.17;;;37.90;;
84996;SDS011;75312;47.528;19.016;2024-01-30T02:17:27;40.57;;;37.17;;
84996;SDS011;75312;47.528;19.016;2024-01-30T02:18:00;38.87;;;35.93;;
84996;SDS011;75312;47.528;19.016;2024-01-30T02:18:33;39.83;;;37.17;;
84996;SDS011;75312;47.528;19.016;2024-01-30T02:19:11;41.50;;;38.53;;
84996;SDS011;75312;47.528;19.016;2024-01-30T02:19:42;41.07;;;38.03;;
84996;SDS011;75312;47.528;19.016;2024-01-30T02:20:13;40.63;;;37.60;;
84996;SDS011;75312;47.528;19.016;2024-01-30T02:20:44;41.63;;;38.17;;
84996;SDS011;75312;47.528;19.016;2024-01-30T02:21:19;39.37;;;36.17;;
84996;SDS011;75312;47.528;19.016;2024-01-30T02:21:52;40.33;;;37.13;;
84996;SDS011;75312;47.528;19.016;2024-01-30T02:22:26;39.93;;;36.87;;
84996;SDS011;75312;47.528;19.016;2024-01-30T02:22:58;42.50;;;39.10;;
84996;SDS011;75312;47.528;19.016;2024-01-30T02:23:31;41.60;;;38.50;;
84996;SDS011;75312;47.528;19.016;2024-01-30T02:24:06;42.27;;;38.97;;
84996;SDS011;75312;47.528;19.016;2024-01-30T02:24:37;41.10;;;38.13;;
84996;SDS011;75312;47.528;19.016;2024-01-30T02:25:09;42.57;;;39.23;;
84996;SDS011;75312;47.528;19.016;2024-01-30T02:25:43;40.80;;;37.63;;
84996;SDS011;75312;47.528;19.016;2024-01-30T02:26:16;39.37;;;37.10;;
84996;SDS011;75312;47.528;19.016;2024-01-30T02:26:49;39.27;;;36.93;;
84996;SDS011;75312;47.528;19.016;2024-01-30T02:27:22;40.90;;;37.80;;
84996;SDS011;75312;47.528;19.016;2024-01-30T02:27:53;40.33;;;37.50;;
84996;SDS011;75312;47.528;19.016;2024-01-30T02:28:26;41.33;;;38.47;;
84996;SDS011;75312;47.528;19.016;2024-01-30T02:28:57;39.43;;;36.83;;
84996;SDS011;75312;47.528;19.016;2024-01-30T02:29:28;39.57;;;36.83;;
84996;SDS011;75312;47.528;19.016;2024-01-30T02:29:59;40.20;;;37.50;;
84996;SDS011;75312;47.528;19.016;2024-01-30T02:30:29;41.67;;;38.63;;
84996;SDS011;75312;47.528;19.016;2024-01-30T02:31:00;42.13;;;39.13;;
84996;SDS011;75312;47.528;19.016;2024-01-30T02:31:30;41.60;;;38.43;;
84996;SDS011;75312;47.528;19.016;2024-01-30T02:32:01;41.00;;;37.83;;
84996;SDS011;75312;47.528;19.016;2024-01-30T02:32:32;41.17;;;37.57;;
84996;SDS011;75312;47.528;19.016;2024-01-30T02:33:02;41.10;;;37.93;;
84996;SDS011;75312;47.528;19.016;2024-01-30T02:33:33;41.30;;;38.10;;
84996;SDS011;75312;47.528;19.016;2024-01-30T02:34:04;42.90;;;39.47;;
84996;SDS011;75312;47.528;19.016;2024-01-30T02:34:37;41.90;;;38.40;;
84996;SDS011;75312;47.528;19.016;2024-01-30T02:35:08;39.33;;;36.67;;
84996;SDS011;75312;47.528;19.016;2024-01-30T02:35:41;40.43;;;37.67;;
84996;SDS011;75312;47.528;19.016;2024-01-30T02:36:12;39.73;;;37.13;;
84996;SDS011;75312;47.528;19.016;2024-01-30T02:36:45;40.00;;;37.33;;
84996;SDS011;75312;47.528;19.016;2024-01-30T02:37:21;39.70;;;37.00;;
84996;SDS011;75312;47.528;19.016;2024-01-30T02:37:52;39.83;;;37.43;;
84996;SDS011;75312;47.528;19.016;2024-01-30T02:38:22;41.10;;;38.27;;
84996;SDS011;75312;47.528;19.016;2024-01-30T02:38:53;41.47;;;38.47;;
84996;SDS011;75312;47.528;19.016;2024-01-30T02:39:24;41.23;;;38.17;;
84996;SDS011;75312;47.528;19.016;2024-01-30T02:39:57;41.00;;;38.33;;
84996;SDS011;75312;47.528;19.016;2024-01-30T02:40:30;41.20;;;38.70;;
84996;SDS011;75312;47.528;19.016;2024-01-30T02:41:01;42.90;;;40.03;;
84996;SDS011;75312;47.528;19.016;2024-01-30T02:41:33;41.27;;;38.83;;
84996;SDS011;75312;47.528;19.016;2024-01-30T02:42:06;39.50;;;37.37;;
84996;SDS011;75312;47.528;19.016;2024-01-30T02:42:37;42.13;;;39.40;;
84996;SDS011;75312;47.528;19.016;2024-01-30T02:43:07;43.03;;;40.17;;
84996;SDS011;75312;47.528;19.016;2024-01-30T02:43:41;43.50;;;40.07;;
84996;SDS011;75312;47.528;19.016;2024-01-30T02:44:14;42.70;;;39.43;;
84996;SDS011;75312;47.528;19.016;2024-01-30T02:44:45;42.93;;;39.70;;
84996;SDS011;75312;47.528;19.016;2024-01-30T02:45:15;43.30;;;40.27;;
84996;SDS011;75312;47.528;19.016;2024-01-30T02:45:46;43.30;;;40.20;;
84996;SDS011;75312;47.528;19.016;2024-01-30T02:46:16;44.63;;;40.90;;
84996;SDS011;75312;47.528;19.016;2024-01-30T02:49:52;43.57;;;40.70;;
84996;SDS011;75312;47.528;19.016;2024-01-30T02:50:22;43.20;;;40.43;;
84996;SDS011;75312;47.528;19.016;2024-01-30T02:50:55;44.17;;;40.97;;
84996;SDS011;75312;47.528;19.016;2024-01-30T02:51:29;44.50;;;41.27;;
84996;SDS011;75312;47.528;19.016;2024-01-30T02:52:05;46.43;;;42.77;;
84996;SDS011;75312;47.528;19.016;2024-01-30T02:52:36;45.07;;;41.67;;
84996;SDS011;75312;47.528;19.016;2024-01-30T02:53:08;43.77;;;40.63;;
84996;SDS011;75312;47.528;19.016;2024-01-30T02:53:42;46.67;;;42.97;;
84996;SDS011;75312;47.528;19.016;2024-01-30T02:54:12;46.40;;;42.80;;
84996;SDS011;75312;47.528;19.016;2024-01-30T02:54:43;44.83;;;41.97;;
84996;SDS011;75312;47.528;19.016;2024-01-30T02:55:13;46.20;;;43.10;;
84996;SDS011;75312;47.528;19.016;2024-01-30T02:55:47;47.70;;;44.27;;
84996;SDS011;75312;47.528;19.016;2024-01-30T02:56:20;46.80;;;43.50;;
84996;SDS011;75312;47.528;19.016;2024-01-30T02:56:51;44.53;;;41.67;;
84996;SDS011;75312;47.528;19.016;2024-01-30T02:57:21;45.73;;;42.37;;
84996;SDS011;75312;47.528;19.016;2024-01-30T02:57:54;46.13;;;43.17;;
84996;SDS011;75312;47.528;19.016;2024-01-30T02:58:27;46.73;;;43.23;;
84996;SDS011;75312;47.528;19.016;2024-01-30T02:59:00;45.10;;;41.77;;
84996;SDS011;75312;47.528;19.016;2024-01-30T02:59:35;44.87;;;41.73;;
84996;SDS011;75312;47.528;19.016;2024-01-30T03:00:06;46.23;;;42.47;;
84996;SDS011;75312;47.528;19.016;2024-01-30T03:00:39;46.13;;;42.93;;
84996;SDS011;75312;47.528;19.016;2024-01-30T03:01:10;45.30;;;42.27;;
84996;SDS011;75312;47.528;19.016;2024-01-30T03:01:46;47.53;;;43.87;;
84996;SDS011;75312;47.528;19.016;2024-01-30T03:02:19;47.93;;;44.00;;
84996;SDS011;75312;47.528;19.016;2024-01-30T03:02:50;49.57;;;44.87;;
84996;SDS011;75312;47.528;19.016;2024-01-30T03:03:20;49.50;;;45.70;;
84996;SDS011;75312;47.528;19.016;2024-01-30T03:03:51;47.17;;;43.70;;
84996;SDS011;75312;47.528;19.016;2024-01-30T03:04:24;48.90;;;44.70;;
84996;SDS011;75312;47.528;19.016;2024-01-30T03:04:57;48.80;;;45.07;;
84996;SDS011;75312;47.528;19.016;2024-01-30T03:05:30;49.77;;;45.67;;
84996;SDS011;75312;47.528;19.016;2024-01-30T03:06:05;49.90;;;45.97;;
84996;SDS011;75312;47.528;19.016;2024-01-30T03:06:38;49.53;;;45.47;;
84996;SDS011;75312;47.528;19.016;2024-01-30T03:07:08;49.00;;;45.40;;
84996;SDS011;75312;47.528;19.016;2024-01-30T03:07:44;49.67;;;45.90;;
84996;SDS011;75312;47.528;19.016;2024-01-30T03:08:17;50.37;;;46.57;;
84996;SDS011;75312;47.528;19.016;2024-01-30T03:08:50;49.43;;;46.23;;
84996;SDS011;75312;47.528;19.016;2024-01-30T03:09:20;50.63;;;47.17;;
84996;SDS011;75312;47.528;19.016;2024-01-30T03:09:51;52.97;;;48.60;;
84996;SDS011;75312;47.528;19.016;2024-01-30T03:10:24;52.87;;;49.20;;
84996;SDS011;75312;47.528;19.016;2024-01-30T03:10:55;51.90;;;47.70;;
84996;SDS011;75312;47.528;19.016;2024-01-30T03:11:28;53.00;;;49.17;;
84996;SDS011;75312;47.528;19.016;2024-01-30T03:12:01;53.43;;;49.60;;
84996;SDS011;75312;47.528;19.016;2024-01-30T03:12:32;54.07;;;49.93;;
84996;SDS011;75312;47.528;19.016;2024-01-30T03:13:05;53.60;;;50.17;;
84996;SDS011;75312;47.528;19.016;2024-01-30T03:13:38;51.73;;;48.70;;
84996;SDS011;75312;47.528;19.016;2024-01-30T03:14:09;51.57;;;48.33;;
84996;SDS011;75312;47.528;19.016;2024-01-30T03:14:42;54.17;;;50.80;;
84996;SDS011;75312;47.528;19.016;2024-01-30T03:15:15;59.17;;;54.70;;
84996;SDS011;75312;47.528;19.016;2024-01-30T03:15:45;56.17;;;51.93;;
84996;SDS011;75312;47.528;19.016;2024-01-30T03:16:19;53.97;;;50.53;;
84996;SDS011;75312;47.528;19.016;2024-01-30T03:16:49;53.73;;;50.70;;
84996;SDS011;75312;47.528;19.016;2024-01-30T03:17:20;54.77;;;51.67;;
84996;SDS011;75312;47.528;19.016;2024-01-30T03:17:54;56.03;;;52.37;;
84996;SDS011;75312;47.528;19.016;2024-01-30T03:18:27;55.37;;;51.47;;
84996;SDS011;75312;47.528;19.016;2024-01-30T03:18:59;55.47;;;51.77;;
84996;SDS011;75312;47.528;19.016;2024-01-30T03:19:32;54.77;;;51.17;;
84996;SDS011;75312;47.528;19.016;2024-01-30T03:20:05;51.93;;;48.63;;
84996;SDS011;75312;47.528;19.016;2024-01-30T03:20:39;53.20;;;50.07;;
84996;SDS011;75312;47.528;19.016;2024-01-30T03:21:09;54.87;;;51.37;;
84996;SDS011;75312;47.528;19.016;2024-01-30T03:21:42;54.87;;;50.87;;
84996;SDS011;75312;47.528;19.016;2024-01-30T03:22:15;56.90;;;52.43;;
84996;SDS011;75312;47.528;19.016;2024-01-30T03:22:46;56.23;;;52.43;;
84996;SDS011;75312;47.528;19.016;2024-01-30T03:23:17;58.83;;;54.30;;
84996;SDS011;75312;47.528;19.016;2024-01-30T03:23:50;57.43;;;53.07;;
84996;SDS011;75312;47.528;19.016;2024-01-30T03:24:20;54.87;;;51.27;;
84996;SDS011;75312;47.528;19.016;2024-01-30T03:24:54;53.37;;;50.20;;
84996;SDS011;75312;47.528;19.016;2024-01-30T03:25:24;54.53;;;51.33;;
84996;SDS011;75312;47.528;19.016;2024-01-30T03:25:59;53.50;;;50.43;;
84996;SDS011;75312;47.528;19.016;2024-01-30T03:26:34;58.77;;;54.37;;
84996;SDS011;75312;47.528;19.016;2024-01-30T03:27:05;59.07;;;54.73;;
84996;SDS011;75312;47.528;19.016;2024-01-30T03:27:38;56.57;;;52.73;;
84996;SDS011;75312;47.528;19.016;2024-01-30T03:28:09;58.60;;;54.93;;
84996;SDS011;75312;47.528;19.016;2024-01-30T03:28:40;57.67;;;54.37;;
84996;SDS011;75312;47.528;19.016;2024-01-30T03:29:13;57.63;;;54.17;;
84996;SDS011;75312;47.528;19.016;2024-01-30T03:29:46;57.97;;;54.17;;
84996;SDS011;75312;47.528;19.016;2024-01-30T03:30:17;57.17;;;53.90;;
84996;SDS011;75312;47.528;19.016;2024-01-30T03:30:51;58.20;;;54.97;;
84996;SDS011;75312;47.528;19.016;2024-01-30T03:31:25;58.43;;;55.20;;
84996;SDS011;75312;47.528;19.016;2024-01-30T03:31:55;58.57;;;54.80;;
84996;SDS011;75312;47.528;19.016;2024-01-30T03:32:26;58.77;;;54.47;;
84996;SDS011;75312;47.528;19.016;2024-01-30T03:32:57;60.33;;;55.83;;
84996;SDS011;75312;47.528;19.016;2024-01-30T03:33:27;59.57;;;55.33;;
84996;SDS011;75312;47.528;19.016;2024-01-30T03:33:58;58.50;;;54.63;;
84996;SDS011;75312;47.528;19.016;2024-01-30T03:34:32;58.07;;;54.63;;
84996;SDS011;75312;47.528;19.016;2024-01-30T03:35:03;56.27;;;53.47;;
84996;SDS011;75312;47.528;19.016;2024-01-30T03:35:34;58.53;;;55.13;;
84996;SDS011;75312;47.528;19.016;2024-01-30T03:36:08;58.07;;;54.40;;
84996;SDS011;75312;47.528;19.016;2024-01-30T03:36:39;59.13;;;55.57;;
84996;SDS011;75312;47.528;19.016;2024-01-30T03:37:12;61.60;;;57.87;;
84996;SDS011;75312;47.528;19.016;2024-01-30T03:40:54;60.97;;;57.13;;
84996;SDS011;75312;47.528;19.016;2024-01-30T03:41:24;59.13;;;56.37;;
84996;SDS011;75312;47.528;19.016;2024-01-30T03:41:58;58.93;;;55.83;;
84996;SDS011;75312;47.528;19.016;2024-01-30T03:42:31;59.03;;;55.63;;
84996;SDS011;75312;47.528;19.016;2024-01-30T03:43:04;58.20;;;54.93;;